Buj, Russia
Current Conditions -  °F | °C
As of 7:00 PM on Thursday 27 Nov 2014 (Local Time) from UUDL Reporting Station
Overcast Overcast  
Wind Chill: 19°   Ceiling: 900
Heat Index: 25°   Visibility: 6mi
Dew Point: 21°   Wind: 4mph
Humidity: 86%   Direction: 220°SW
Pressure: 30.5"   Gusts: NA
Location:  58.48°N, 41.53°E
Report Text: UUDL 271600Z 22002MPS 9999 OVC009 M04/M06 Q1033 NOSIG RMKQFE766 23000060
Loading
Personal Weather Stations






























Interactive Weather Map New forecast layout! Learn more

10-Day Weather Forecast

Advertisements
Track Severe Weather on mobile